Time;durP1;ratioP1;P1;durP2;ratioP2;P2;SDS_P1;SDS_P2;PMS_P1;PMS_P2;Temp;Humidity;BMP_temperature;BMP_pressure;BME280_temperature;BME280_humidity;BME280_pressure;Samples;Min_cycle;Max_cycle;Signal;HPM_P1;HPM_P2
2021/12/02 00:00:43;;;;;;;10.27;4.60;;;6.30;99.90;;;;;;5016362;28;20220;-89
2021/12/02 00:03:09;;;;;;;6.93;3.67;;;6.30;99.90;;;;;;5016153;28;20181;-89
2021/12/02 00:05:35;;;;;;;9.07;4.40;;;6.30;99.90;;;;;;5015624;28;20700;-90
2021/12/02 00:08:01;;;;;;;7.30;4.30;;;6.40;99.90;;;;;;5016111;28;20426;-89
2021/12/02 00:10:31;;;;;;;9.40;5.33;;;6.40;99.90;;;;;;5015541;28;20180;-89
2021/12/02 00:12:58;;;;;;;7.23;5.00;;;6.30;99.90;;;;;;5016291;28;20181;-89
2021/12/02 00:15:29;;;;;;;8.10;4.53;;;6.30;99.90;;;;;;5015984;28;20431;-90
2021/12/02 00:23:58;;;;;;;8.83;6.17;;;6.30;99.90;;;;;;5017626;28;20419;-89
2021/12/02 00:26:24;;;;;;;9.00;5.93;;;6.30;99.90;;;;;;5014947;28;20522;-89
2021/12/02 00:28:56;;;;;;;10.07;6.20;;;6.40;99.90;;;;;;5015524;28;20412;-89
2021/12/02 00:33:56;;;;;;;15.27;10.80;;;6.40;99.90;;;;;;5047837;28;20466;-84
2021/12/02 00:36:26;;;;;;;12.77;8.20;;;6.50;99.90;;;;;;5044529;28;20489;-86
2021/12/02 00:38:53;;;;;;;14.80;7.53;;;6.60;99.90;;;;;;5029984;28;20431;-85
2021/12/02 00:41:21;;;;;;;13.80;8.37;;;6.50;99.90;;;;;;5029615;28;20424;-86
2021/12/02 00:43:49;;;;;;;15.20;7.37;;;6.50;99.90;;;;;;5030009;28;20423;-86
2021/12/02 00:46:20;;;;;;;10.87;7.17;;;6.50;99.90;;;;;;5032997;28;20489;-86
2021/12/02 00:48:47;;;;;;;13.77;7.80;;;6.50;99.90;;;;;;5034324;28;20429;-86
2021/12/02 00:51:14;;;;;;;9.87;7.17;;;6.50;99.90;;;;;;5032960;28;20422;-85
2021/12/02 00:53:44;;;;;;;17.17;8.50;;;6.50;99.90;;;;;;5031861;28;20459;-86
2021/12/02 00:56:13;;;;;;;14.53;7.73;;;6.50;99.90;;;;;;5033167;28;20485;-86
2021/12/02 00:58:39;;;;;;;10.83;7.80;;;6.50;99.90;;;;;;5032934;28;20427;-86
2021/12/02 01:01:05;;;;;;;13.27;8.70;;;6.40;99.90;;;;;;5032822;28;20506;-87
2021/12/02 01:03:35;;;;;;;12.73;7.73;;;6.40;99.90;;;;;;5032632;28;20925;-86
2021/12/02 01:06:02;;;;;;;13.30;9.90;;;6.30;99.90;;;;;;5032903;28;20460;-86
2021/12/02 01:08:28;;;;;;;13.87;8.87;;;6.30;99.90;;;;;;5032824;28;20926;-85
2021/12/02 01:10:54;;;;;;;10.97;8.07;;;6.30;99.90;;;;;;5032573;28;20420;-86
2021/12/02 01:13:20;;;;;;;16.00;8.57;;;6.30;99.90;;;;;;5032691;28;20439;-86
2021/12/02 01:15:46;;;;;;;20.23;9.57;;;6.30;99.90;;;;;;5032674;28;20456;-86
2021/12/02 01:18:12;;;;;;;11.83;7.00;;;6.30;99.90;;;;;;5032747;28;20431;-85
2021/12/02 01:20:38;;;;;;;11.63;7.87;;;6.30;99.90;;;;;;5033526;28;20640;-86
2021/12/02 01:23:06;;;;;;;15.10;8.23;;;6.30;99.90;;;;;;5032456;28;20246;-86
2021/12/02 01:25:33;;;;;;;14.17;7.30;;;6.40;99.90;;;;;;5032360;28;20467;-86
2021/12/02 01:27:59;;;;;;;12.57;6.83;;;6.40;99.90;;;;;;5032588;28;20431;-86
2021/12/02 01:30:29;;;;;;;11.70;6.40;;;6.40;99.90;;;;;;5032169;28;20419;-86
2021/12/02 01:33:05;;;;;;;13.00;7.13;;;6.40;99.90;;;;;;5032096;28;20447;-87
2021/12/02 01:35:33;;;;;;;14.33;7.20;;;6.40;99.90;;;;;;5032321;28;20434;-87
2021/12/02 01:37:59;;;;;;;11.60;6.53;;;6.40;99.90;;;;;;5032379;28;20412;-86
2021/12/02 01:40:25;;;;;;;9.80;6.27;;;6.40;99.90;;;;;;5033358;28;20975;-85
2021/12/02 01:42:54;;;;;;;18.73;5.90;;;6.40;99.90;;;;;;5031983;28;20259;-86
2021/12/02 01:45:29;;;;;;;13.40;6.77;;;6.50;99.90;;;;;;5032242;28;20465;-86
2021/12/02 01:47:57;;;;;;;10.63;6.50;;;6.50;99.90;;;;;;5032023;28;20429;-86
2021/12/02 01:50:25;;;;;;;11.83;6.37;;;6.50;99.90;;;;;;5031871;28;20449;-86
2021/12/02 01:52:56;;;;;;;10.00;7.00;;;6.40;99.90;;;;;;5031735;28;20443;-86
2021/12/02 01:55:24;;;;;;;8.30;5.40;;;6.40;99.90;;;;;;5033306;28;20430;-86
2021/12/02 01:58:00;;;;;;;9.43;6.47;;;6.50;99.90;;;;;;5031842;28;20425;-87
2021/12/02 02:00:32;;;;;;;9.37;6.83;;;6.50;99.90;;;;;;5031665;28;20548;-87
2021/12/02 02:03:00;;;;;;;8.80;6.37;;;6.50;99.90;;;;;;5032805;28;20501;-87
2021/12/02 02:05:27;;;;;;;11.27;6.80;;;6.40;99.90;;;;;;5031523;28;20457;-86
2021/12/02 02:08:21;;;;;;;10.60;6.10;;;6.50;99.90;;;;;;5031635;28;20929;-86
2021/12/02 02:10:49;;;;;;;7.00;6.30;;;6.40;99.90;;;;;;5031496;28;20423;-86
2021/12/02 02:13:16;;;;;;;8.80;5.47;;;6.40;99.90;;;;;;5031277;28;20569;-85
2021/12/02 02:15:49;;;;;;;8.60;6.27;;;6.40;99.90;;;;;;5031607;28;20430;-87
2021/12/02 02:18:20;;;;;;;9.80;6.63;;;6.40;99.90;;;;;;5031676;28;20506;-86
2021/12/02 02:21:08;;;;;;;9.60;6.70;;;6.40;99.90;;;;;;5031198;28;20805;-87
2021/12/02 02:23:38;;;;;;;11.50;7.50;;;6.40;99.90;;;;;;5031389;28;20454;-85
2021/12/02 02:26:06;;;;;;;8.97;6.87;;;6.50;99.90;;;;;;5031294;28;20840;-86
2021/12/02 02:28:32;;;;;;;13.30;7.17;;;6.30;99.90;;;;;;5032656;28;20509;-86
2021/12/02 02:30:58;;;;;;;10.37;6.10;;;6.30;99.90;;;;;;5030851;28;20522;-85
2021/12/02 02:33:23;;;;;;;12.53;7.50;;;6.30;99.90;;;;;;5031179;28;20541;-87
2021/12/02 02:35:49;;;;;;;9.70;7.20;;;6.30;99.90;;;;;;5031234;28;20242;-86
2021/12/02 02:38:15;;;;;;;7.53;4.73;;;6.30;99.90;;;;;;5032586;28;20590;-87
2021/12/02 02:40:44;;;;;;;6.17;4.47;;;6.20;99.90;;;;;;5030949;28;20484;-88
2021/12/02 02:43:19;;;;;;;9.67;4.87;;;6.10;99.90;;;;;;5032339;28;20436;-86
2021/12/02 02:45:44;;;;;;;7.70;5.10;;;6.00;99.90;;;;;;5030916;28;20470;-87
2021/12/02 02:48:10;;;;;;;12.37;5.37;;;6.00;99.90;;;;;;5031161;28;20437;-86
2021/12/02 02:50:35;;;;;;;11.40;6.10;;;6.00;99.90;;;;;;5030910;28;20606;-88
2021/12/02 02:53:13;;;;;;;11.70;5.30;;;6.10;99.90;;;;;;5030794;28;20208;-88
2021/12/02 02:55:40;;;;;;;10.73;4.73;;;6.10;99.90;;;;;;5032220;28;20178;-88
2021/12/02 02:58:16;;;;;;;13.50;6.00;;;6.10;99.90;;;;;;5030847;28;20434;-88
2021/12/02 03:01:31;;;;;;;8.87;5.87;;;6.10;99.90;;;;;;5030818;28;20449;-88
2021/12/02 03:08:41;;;;;;;9.83;6.03;;;6.00;99.90;;;;;;5032206;28;20537;-85
2021/12/02 03:11:09;;;;;;;8.47;6.30;;;6.00;99.90;;;;;;5050379;28;20471;-85
2021/12/02 03:13:47;;;;;;;12.93;6.10;;;6.00;99.90;;;;;;5050437;28;20443;-84
2021/12/02 03:19:07;;;;;;;13.67;7.00;;;5.90;99.90;;;;;;5045892;28;20446;-84
2021/12/02 03:21:33;;;;;;;10.60;6.03;;;5.90;99.90;;;;;;5054592;28;21013;-85
2021/12/02 03:24:00;;;;;;;8.60;6.17;;;5.90;99.90;;;;;;5054548;28;20568;-86
2021/12/02 03:26:27;;;;;;;9.97;6.47;;;6.00;99.90;;;;;;5055986;28;20213;-87
2021/12/02 03:28:53;;;;;;;11.70;6.00;;;6.00;99.90;;;;;;5055671;28;20431;-85
2021/12/02 03:31:20;;;;;;;8.00;5.90;;;6.00;99.90;;;;;;5054352;28;20924;-85
2021/12/02 03:33:46;;;;;;;10.90;6.80;;;5.90;99.90;;;;;;5054202;28;20432;-86
2021/12/02 03:36:14;;;;;;;8.03;5.40;;;6.00;99.90;;;;;;5055813;28;20498;-86
2021/12/02 03:38:39;;;;;;;11.07;7.20;;;6.00;99.90;;;;;;5054888;28;20422;-86
2021/12/02 03:41:06;;;;;;;13.13;6.17;;;5.90;99.90;;;;;;5054167;28;20463;-86
2021/12/02 03:43:42;;;;;;;7.13;5.30;;;6.00;99.90;;;;;;5054375;28;20218;-86
2021/12/02 03:46:10;;;;;;;8.07;5.20;;;6.00;99.90;;;;;;5054117;28;20460;-86
2021/12/02 03:48:37;;;;;;;8.17;5.50;;;6.10;99.90;;;;;;5054316;28;20474;-84
2021/12/02 03:51:03;;;;;;;8.90;4.97;;;6.10;99.90;;;;;;5053866;28;20432;-86
2021/12/02 03:53:29;;;;;;;7.93;4.80;;;6.00;99.90;;;;;;5055370;28;20468;-86
2021/12/02 03:55:55;;;;;;;11.17;4.90;;;5.80;99.90;;;;;;5054057;28;20456;-86
2021/12/02 03:58:20;;;;;;;7.17;4.13;;;5.80;99.90;;;;;;5054187;28;20693;-87
2021/12/02 04:00:46;;;;;;;4.83;3.33;;;5.80;99.90;;;;;;5054908;28;20184;-87
2021/12/02 04:03:11;;;;;;;5.90;3.80;;;5.70;99.90;;;;;;5054045;28;20892;-87
2021/12/02 04:05:37;;;;;;;4.87;3.57;;;5.60;99.90;;;;;;5053882;28;20690;-87
2021/12/02 04:08:03;;;;;;;7.50;4.03;;;5.50;99.90;;;;;;5053977;28;20178;-86
2021/12/02 04:10:31;;;;;;;4.40;3.13;;;5.50;99.90;;;;;;5053699;28;20185;-86
2021/12/02 04:15:55;;;;;;;5.20;2.50;;;5.40;99.90;;;;;;5046134;28;20988;-85
2021/12/02 04:18:21;;;;;;;3.37;1.77;;;5.40;99.90;;;;;;5053800;28;20434;-87
2021/12/02 04:20:46;;;;;;;5.30;1.80;;;5.40;99.90;;;;;;5053500;28;20417;-87
2021/12/02 04:23:12;;;;;;;5.23;2.17;;;5.30;99.90;;;;;;5053523;28;20891;-86
2021/12/02 04:25:38;;;;;;;2.70;1.60;;;5.30;99.90;;;;;;5053649;28;20256;-86
2021/12/02 04:28:03;;;;;;;6.60;1.90;;;5.30;99.90;;;;;;5053355;28;20205;-86
2021/12/02 04:30:29;;;;;;;4.40;2.27;;;5.30;99.90;;;;;;5053338;28;20673;-85
2021/12/02 04:32:55;;;;;;;7.17;2.10;;;5.30;99.90;;;;;;5053140;28;20218;-87
2021/12/02 04:35:21;;;;;;;4.30;2.33;;;5.30;99.90;;;;;;5053572;28;20287;-86
2021/12/02 04:37:51;;;;;;;6.93;2.00;;;5.30;99.90;;;;;;5053309;28;20187;-86
2021/12/02 04:40:18;;;;;;;4.43;2.73;;;5.30;99.90;;;;;;5053144;28;20476;-87
2021/12/02 04:42:45;;;;;;;3.80;2.60;;;5.40;99.90;;;;;;5053014;28;20817;-86
2021/12/02 04:45:11;;;;;;;5.10;3.07;;;5.40;99.90;;;;;;5053177;28;20533;-86
2021/12/02 04:47:37;;;;;;;6.00;4.20;;;5.50;99.90;;;;;;5054459;28;20835;-86
2021/12/02 04:50:05;;;;;;;11.20;4.33;;;5.60;99.90;;;;;;5052912;28;20453;-87
2021/12/02 04:52:30;;;;;;;7.57;4.13;;;5.70;99.90;;;;;;5053124;28;20441;-86
2021/12/02 04:54:56;;;;;;;6.20;4.30;;;5.80;99.90;;;;;;5052759;28;20428;-86
2021/12/02 04:57:22;;;;;;;10.07;5.13;;;5.90;99.90;;;;;;5053054;28;20191;-86
2021/12/02 04:59:47;;;;;;;9.30;4.30;;;5.90;99.90;;;;;;5053931;28;20579;-87
2021/12/02 05:02:13;;;;;;;6.80;5.00;;;5.90;99.90;;;;;;5052973;28;20208;-86
2021/12/02 05:04:38;;;;;;;8.70;4.80;;;5.90;99.90;;;;;;5052749;28;20203;-86
2021/12/02 05:07:04;;;;;;;11.70;5.07;;;5.90;99.90;;;;;;5052849;28;20603;-85
2021/12/02 05:09:29;;;;;;;6.73;4.17;;;6.00;99.90;;;;;;5052533;28;20186;-86
2021/12/02 05:11:55;;;;;;;6.60;3.87;;;6.00;99.90;;;;;;5052739;28;20339;-87
2021/12/02 05:14:20;;;;;;;6.07;3.70;;;6.00;99.90;;;;;;5052735;28;20549;-85
2021/12/02 05:16:46;;;;;;;9.23;3.40;;;6.00;99.90;;;;;;5053914;28;20776;-86
2021/12/02 05:19:12;;;;;;;4.93;2.50;;;5.90;99.90;;;;;;5052552;28;20183;-87
2021/12/02 05:21:37;;;;;;;5.70;2.23;;;6.00;99.90;;;;;;5052398;28;21518;-86
2021/12/02 05:24:03;;;;;;;4.80;3.13;;;5.80;99.90;;;;;;5052503;28;20225;-86
2021/12/02 05:26:29;;;;;;;4.90;2.20;;;5.80;99.90;;;;;;5053480;28;20226;-85
2021/12/02 05:28:54;;;;;;;5.23;2.10;;;5.70;99.90;;;;;;5053653;28;20175;-84
2021/12/02 05:31:21;;;;;;;3.20;1.63;;;5.70;99.90;;;;;;5053311;28;20168;-87
2021/12/02 05:33:47;;;;;;;3.10;1.70;;;5.80;99.90;;;;;;5052328;28;20199;-87
2021/12/02 05:36:12;;;;;;;4.57;1.53;;;5.60;99.90;;;;;;5053468;28;20424;-87
2021/12/02 05:38:38;;;;;;;5.13;2.30;;;5.60;99.90;;;;;;5052295;28;20183;-86
2021/12/02 05:41:04;;;;;;;3.60;2.03;;;5.70;99.90;;;;;;5052437;28;20646;-85
2021/12/02 05:43:30;;;;;;;6.10;2.23;;;5.70;99.90;;;;;;5052038;28;20214;-86
2021/12/02 05:45:56;;;;;;;3.80;2.27;;;5.50;99.90;;;;;;5051882;28;20574;-88
2021/12/02 05:48:21;;;;;;;6.83;3.47;;;5.50;99.90;;;;;;5053313;28;20427;-85
2021/12/02 05:50:47;;;;;;;10.00;3.10;;;5.40;99.90;;;;;;5051748;28;20187;-85
2021/12/02 05:53:13;;;;;;;7.17;3.70;;;5.40;99.90;;;;;;5051966;28;20724;-86
2021/12/02 05:55:38;;;;;;;6.50;3.90;;;5.30;99.90;;;;;;5053205;28;20337;-87
2021/12/02 05:58:06;;;;;;;7.80;5.33;;;5.30;99.90;;;;;;5052957;28;20183;-86
2021/12/02 06:00:33;;;;;;;8.20;3.60;;;5.30;99.90;;;;;;5052903;28;20182;-87
2021/12/02 06:02:59;;;;;;;6.80;3.37;;;5.30;99.90;;;;;;5051480;28;20988;-86
2021/12/02 06:05:25;;;;;;;6.00;2.97;;;5.30;99.90;;;;;;5051738;28;20500;-86
2021/12/02 06:07:52;;;;;;;3.27;2.30;;;5.30;99.90;;;;;;5051807;28;20276;-86
2021/12/02 06:10:18;;;;;;;8.83;2.20;;;5.30;99.90;;;;;;5051545;28;21005;-86
2021/12/02 06:12:44;;;;;;;4.27;2.10;;;5.40;99.90;;;;;;5051379;28;20446;-85
2021/12/02 06:15:11;;;;;;;3.97;2.00;;;5.30;99.90;;;;;;5051491;28;20429;-84
2021/12/02 06:17:37;;;;;;;4.00;1.83;;;5.30;99.90;;;;;;5052725;28;20424;-87
2021/12/02 06:20:04;;;;;;;5.00;1.50;;;5.20;99.90;;;;;;5052472;28;20774;-86
2021/12/02 06:22:30;;;;;;;3.30;1.33;;;5.10;99.90;;;;;;5051372;28;20482;-85
2021/12/02 06:27:44;;;;;;;6.23;2.40;;;5.00;99.90;;;;;;5053016;28;20168;-86
2021/12/02 06:30:11;;;;;;;3.57;2.10;;;4.90;99.90;;;;;;5051049;28;20432;-87
2021/12/02 06:32:37;;;;;;;3.53;2.13;;;4.90;99.90;;;;;;5089524;22;20462;-83
2021/12/02 06:35:03;;;;;;;4.23;2.20;;;5.00;99.90;;;;;;5031985;28;20990;-83
2021/12/02 06:37:29;;;;;;;6.90;2.07;;;5.00;99.90;;;;;;5032684;28;20181;-83
2021/12/02 06:39:54;;;;;;;5.33;2.60;;;5.00;99.90;;;;;;5030785;28;20478;-83
2021/12/02 06:42:20;;;;;;;4.67;2.60;;;5.00;99.90;;;;;;5047858;28;20215;-83
2021/12/02 06:44:46;;;;;;;5.63;2.70;;;5.10;99.90;;;;;;5032398;28;20206;-83
2021/12/02 06:47:12;;;;;;;6.10;2.53;;;5.10;99.90;;;;;;5031222;28;20236;-82
2021/12/02 06:49:39;;;;;;;3.97;2.20;;;5.10;99.90;;;;;;5030928;28;20236;-83
2021/12/02 06:52:10;;;;;;;4.77;2.73;;;5.10;99.90;;;;;;5017064;28;20433;-83
2021/12/02 06:54:36;;;;;;;9.23;3.43;;;5.20;99.90;;;;;;5027741;28;20442;-82
2021/12/02 06:57:02;;;;;;;3.90;2.50;;;5.10;99.90;;;;;;5027596;28;20517;-83
2021/12/02 06:59:28;;;;;;;6.43;3.30;;;5.10;99.90;;;;;;5027527;28;20431;-82
2021/12/02 07:01:54;;;;;;;5.10;3.17;;;5.10;99.90;;;;;;5012275;28;20418;-83
2021/12/02 07:04:19;;;;;;;9.20;3.17;;;5.20;99.90;;;;;;5027371;28;20448;-83
2021/12/02 07:06:48;;;;;;;4.27;2.90;;;5.20;99.90;;;;;;5012482;28;20337;-82
2021/12/02 07:09:14;;;;;;;6.13;3.93;;;5.20;99.90;;;;;;5027867;28;20188;-82
2021/12/02 07:11:39;;;;;;;7.73;3.57;;;5.10;99.90;;;;;;5028109;28;20425;-82
2021/12/02 07:14:08;;;;;;;6.10;3.03;;;5.10;99.90;;;;;;5027409;28;20744;-82
2021/12/02 07:16:35;;;;;;;5.40;3.60;;;5.10;99.90;;;;;;5027658;28;20192;-83
2021/12/02 07:19:06;;;;;;;4.80;3.20;;;5.10;99.90;;;;;;5027586;28;20459;-82
2021/12/02 07:21:34;;;;;;;8.53;3.90;;;5.00;99.90;;;;;;5012431;28;20420;-82
2021/12/02 07:23:59;;;;;;;5.70;3.50;;;5.00;99.90;;;;;;5027214;28;20449;-82
2021/12/02 07:26:41;;;;;;;;;;;;;;;;;;;;;
2021/12/02 07:29:53;;;;;;;6.40;2.53;;;4.90;99.90;;;;;;5011942;28;20534;-82
2021/12/02 07:32:19;;;;;;;6.50;2.60;;;4.70;99.90;;;;;;5008210;28;20438;-82
2021/12/02 07:34:46;;;;;;;5.90;2.83;;;4.70;99.90;;;;;;5012168;28;20443;-82
2021/12/02 07:37:15;;;;;;;4.40;2.43;;;4.70;99.90;;;;;;5027809;28;20424;-83
2021/12/02 07:39:41;;;;;;;3.07;2.03;;;4.60;99.90;;;;;;5013612;28;20994;-82
2021/12/02 07:42:06;;;;;;;4.17;2.60;;;4.70;99.90;;;;;;5028075;28;20454;-82
2021/12/02 07:44:35;;;;;;;3.30;1.90;;;4.70;99.90;;;;;;5028128;28;20455;-82
2021/12/02 07:47:03;;;;;;;5.83;2.67;;;4.70;99.90;;;;;;5012804;28;20189;-82
2021/12/02 07:49:29;;;;;;;4.03;2.47;;;4.70;99.90;;;;;;5012346;28;20416;-82
2021/12/02 07:51:59;;;;;;;4.80;2.73;;;4.70;99.90;;;;;;5027465;28;20528;-82
2021/12/02 07:54:26;;;;;;;4.97;2.97;;;4.70;99.90;;;;;;5027568;28;20203;-82
2021/12/02 07:56:52;;;;;;;4.70;2.57;;;4.80;99.90;;;;;;5013082;28;20788;-83
2021/12/02 07:59:21;;;;;;;6.20;2.80;;;4.80;99.90;;;;;;5012305;28;20828;-82
2021/12/02 08:01:49;;;;;;;5.13;3.27;;;4.80;99.90;;;;;;5027445;28;20417;-82
2021/12/02 08:04:15;;;;;;;6.40;3.73;;;4.80;99.90;;;;;;5030498;28;20575;-82
2021/12/02 08:06:41;;;;;;;4.37;2.90;;;4.70;99.90;;;;;;5031039;28;20962;-82
2021/12/02 08:09:13;;;;;;;6.53;3.20;;;4.80;99.90;;;;;;5016072;28;20170;-83
2021/12/02 08:11:39;;;;;;;5.00;3.47;;;4.80;99.90;;;;;;5031104;28;20181;-82
2021/12/02 08:14:12;;;;;;;5.67;3.60;;;4.80;99.90;;;;;;5015715;28;20432;-82
2021/12/02 08:16:37;;;;;;;6.00;3.87;;;4.80;99.90;;;;;;5015570;28;20406;-82
2021/12/02 08:19:03;;;;;;;5.87;3.73;;;4.90;99.90;;;;;;5030993;28;20973;-83
2021/12/02 08:21:28;;;;;;;6.77;3.90;;;4.80;99.90;;;;;;5016006;28;20219;-82
2021/12/02 08:23:54;;;;;;;7.50;4.33;;;4.80;99.90;;;;;;5031224;28;20202;-82
2021/12/02 08:26:20;;;;;;;6.37;4.47;;;4.80;99.90;;;;;;5030526;28;20297;-82
2021/12/02 08:28:45;;;;;;;8.10;4.10;;;4.90;99.90;;;;;;5015632;28;20242;-82
2021/12/02 08:31:11;;;;;;;6.40;3.97;;;5.00;99.90;;;;;;5030784;28;20229;-82
2021/12/02 08:33:37;;;;;;;7.20;3.97;;;4.90;99.90;;;;;;5030547;28;20213;-82
2021/12/02 08:36:02;;;;;;;4.87;3.40;;;4.90;99.90;;;;;;5030561;28;20219;-82
2021/12/02 08:38:35;;;;;;;5.07;3.70;;;4.90;99.90;;;;;;5012894;28;20261;-83
2021/12/02 08:44:29;;;;;;;5.90;4.10;;;5.00;99.90;;;;;;5047451;22;20529;-81
2021/12/02 08:46:55;;;;;;;5.80;3.80;;;4.90;99.90;;;;;;5039209;28;20421;-81
2021/12/02 08:49:21;;;;;;;6.90;4.90;;;4.90;99.90;;;;;;5038167;28;20767;-81
2021/12/02 08:51:47;;;;;;;6.40;4.87;;;4.70;99.90;;;;;;5037993;28;20196;-80
2021/12/02 08:54:14;;;;;;;6.17;3.90;;;4.60;99.90;;;;;;5036661;28;20473;-80
2021/12/02 08:56:40;;;;;;;6.53;4.30;;;4.70;99.90;;;;;;5038079;28;20451;-80
2021/12/02 08:59:07;;;;;;;6.43;3.57;;;4.60;99.90;;;;;;5036063;28;20447;-80
2021/12/02 09:01:33;;;;;;;5.03;3.50;;;4.70;99.90;;;;;;5035727;28;20440;-83
2021/12/02 09:04:02;;;;;;;4.80;3.60;;;4.60;99.90;;;;;;5035503;28;20452;-83
2021/12/02 09:06:29;;;;;;;4.60;3.70;;;4.60;99.90;;;;;;5035283;28;20462;-83
2021/12/02 09:08:57;;;;;;;4.60;3.50;;;4.70;99.90;;;;;;5036389;28;20455;-80
2021/12/02 09:11:23;;;;;;;6.90;3.97;;;4.80;99.90;;;;;;5047573;28;20445;-81
2021/12/02 09:13:49;;;;;;;5.00;3.70;;;5.10;99.90;;;;;;5055336;28;20428;-81
2021/12/02 09:16:15;;;;;;;6.40;4.80;;;5.30;99.90;;;;;;5054866;28;20640;-80
2021/12/02 09:18:41;;;;;;;5.77;4.20;;;5.30;99.90;;;;;;5055436;28;20421;-80
2021/12/02 09:21:07;;;;;;;10.07;4.97;;;5.40;99.90;;;;;;5053866;28;20515;-81
2021/12/02 09:23:33;;;;;;;6.03;3.80;;;5.30;99.90;;;;;;5054407;28;20428;-80
2021/12/02 09:25:59;;;;;;;7.70;4.27;;;5.30;99.90;;;;;;5054007;28;20463;-80
2021/12/02 09:28:26;;;;;;;6.43;3.87;;;5.20;99.90;;;;;;5060285;28;20177;-80
2021/12/02 09:30:52;;;;;;;6.80;4.07;;;5.30;99.90;;;;;;5057437;28;20425;-81
2021/12/02 09:33:18;;;;;;;7.00;4.20;;;5.40;99.90;;;;;;5048853;28;20941;-80
2021/12/02 09:35:44;;;;;;;7.57;4.10;;;5.50;99.90;;;;;;5036370;28;20434;-79
2021/12/02 09:38:10;;;;;;;6.20;4.40;;;5.70;99.90;;;;;;5035600;28;20422;-79
2021/12/02 09:40:39;;;;;;;5.77;3.90;;;5.80;99.90;;;;;;5035109;28;20429;-79
2021/12/02 09:43:05;;;;;;;6.27;3.77;;;5.90;99.90;;;;;;5035546;28;20491;-79
2021/12/02 09:45:31;;;;;;;4.83;3.60;;;5.90;99.90;;;;;;5035311;28;20501;-79
2021/12/02 09:47:57;;;;;;;6.10;3.97;;;5.80;99.90;;;;;;5035653;28;20940;-79
2021/12/02 09:50:38;;;;;;;6.10;3.80;;;5.60;99.90;;;;;;5034672;28;20422;-79
2021/12/02 09:53:07;;;;;;;5.30;3.53;;;5.50;99.90;;;;;;5035065;28;20450;-79
2021/12/02 09:58:11;;;;;;;5.70;2.80;;;5.50;99.90;;;;;;5036060;28;20781;-79
2021/12/02 10:00:48;;;;;;;4.20;3.10;;;5.40;99.90;;;;;;5034034;28;20852;-79
2021/12/02 10:03:34;;;;;;;4.30;2.90;;;5.40;99.90;;;;;;5034146;28;20859;-79
2021/12/02 10:06:05;;;;;;;4.50;3.00;;;5.40;99.90;;;;;;5034464;28;20476;-79
2021/12/02 10:08:39;;;;;;;4.03;2.93;;;5.70;99.90;;;;;;5035062;28;20501;-79
2021/12/02 10:11:10;;;;;;;3.80;2.73;;;5.80;99.90;;;;;;5034311;28;20433;-79
2021/12/02 10:13:48;;;;;;;5.27;3.53;;;5.80;99.90;;;;;;5034816;28;20766;-79
2021/12/02 10:16:32;;;;;;;4.40;2.90;;;5.80;99.90;;;;;;5035323;28;20421;-79
2021/12/02 10:21:38;;;;;;;9.03;3.40;;;5.80;99.90;;;;;;5035541;28;20454;-79
2021/12/02 10:24:13;;;;;;;5.97;3.70;;;6.00;99.90;;;;;;5034538;28;20428;-79
2021/12/02 10:26:50;;;;;;;6.07;3.30;;;6.20;99.90;;;;;;5033615;28;20473;-79
2021/12/02 10:29:18;;;;;;;4.23;2.77;;;6.30;99.90;;;;;;5033950;28;20908;-79
2021/12/02 10:31:49;;;;;;;5.70;3.40;;;6.30;99.90;;;;;;5032729;28;20446;-79
2021/12/02 10:34:17;;;;;;;5.33;2.93;;;6.40;99.90;;;;;;5034615;28;20827;-79
2021/12/02 10:36:46;;;;;;;3.73;2.77;;;6.30;99.90;;;;;;5034743;28;20442;-79
2021/12/02 10:39:17;;;;;;;3.93;2.80;;;6.00;99.90;;;;;;5034605;28;20964;-79
2021/12/02 10:41:45;;;;;;;4.50;2.60;;;5.90;99.90;;;;;;5034419;28;20529;-79
2021/12/02 10:44:14;;;;;;;4.13;2.60;;;5.80;99.90;;;;;;5035703;28;20449;-79
2021/12/02 10:47:08;;;;;;;3.93;2.50;;;6.00;99.90;;;;;;5035063;28;20469;-79
2021/12/02 10:49:50;;;;;;;5.37;2.27;;;5.90;99.90;;;;;;5033752;28;20429;-79
2021/12/02 10:52:17;;;;;;;3.03;2.27;;;5.80;99.90;;;;;;5034364;28;20440;-80
2021/12/02 10:54:46;;;;;;;4.43;2.20;;;5.90;99.90;;;;;;5034406;28;20415;-79
2021/12/02 10:57:19;;;;;;;3.47;2.37;;;6.20;99.90;;;;;;5034411;28;20425;-79
2021/12/02 11:00:00;;;;;;;3.43;2.23;;;6.40;99.90;;;;;;5034181;28;20568;-79
2021/12/02 11:02:31;;;;;;;4.13;2.23;;;6.80;99.90;;;;;;5034182;28;20973;-79
2021/12/02 11:05:24;;;;;;;3.27;1.80;;;7.50;99.90;;;;;;5024473;28;20469;-79
2021/12/02 11:07:57;;;;;;;3.80;2.33;;;8.10;99.90;;;;;;5041724;28;20426;-79
2021/12/02 11:10:25;;;;;;;4.40;1.93;;;8.70;99.90;;;;;;5030463;28;20426;-79
2021/12/02 11:12:55;;;;;;;8.10;2.00;;;8.70;99.90;;;;;;5030501;28;20463;-79
2021/12/02 11:15:26;;;;;;;4.60;1.90;;;8.60;99.90;;;;;;5030343;28;20434;-79
2021/12/02 11:17:59;;;;;;;5.20;1.90;;;8.80;99.90;;;;;;5030559;28;20427;-79
2021/12/02 11:20:59;;;;;;;4.70;2.00;;;8.00;99.90;;;;;;5030516;28;21109;-79
2021/12/02 11:23:29;;;;;;;3.53;2.20;;;7.60;99.90;;;;;;5031349;28;20450;-79
2021/12/02 11:26:05;;;;;;;6.10;2.07;;;7.10;99.90;;;;;;5030793;28;20494;-79
2021/12/02 11:28:33;;;;;;;4.43;1.67;;;6.80;99.90;;;;;;5031293;28;20415;-78
2021/12/02 11:31:17;;;;;;;3.10;1.60;;;6.70;99.90;;;;;;5035475;28;20426;-80
2021/12/02 11:33:45;;;;;;;2.97;1.67;;;6.50;99.90;;;;;;5038330;28;20426;-80
2021/12/02 11:36:37;;;;;;;5.43;1.60;;;6.10;99.90;;;;;;5038252;28;20434;-81
2021/12/02 11:39:07;;;;;;;3.27;1.47;;;6.00;99.90;;;;;;5034853;28;20783;-79
2021/12/02 11:41:33;;;;;;;4.70;2.07;;;6.00;99.90;;;;;;5038858;28;20464;-80
2021/12/02 11:44:00;;;;;;;3.30;1.73;;;6.00;99.90;;;;;;5039816;28;20443;-81
2021/12/02 11:46:26;;;;;;;4.60;1.80;;;6.10;99.90;;;;;;5038302;28;20469;-79
2021/12/02 11:48:52;;;;;;;3.77;2.07;;;6.10;99.90;;;;;;5039951;28;20440;-81
2021/12/02 11:51:20;;;;;;;4.53;1.83;;;6.60;99.90;;;;;;5046015;28;20196;-80
2021/12/02 11:53:47;;;;;;;3.70;2.37;;;7.20;99.90;;;;;;5042561;28;20464;-79
2021/12/02 11:56:15;;;;;;;5.60;2.13;;;7.10;99.90;;;;;;5039438;28;20423;-81
2021/12/02 11:58:42;;;;;;;4.10;2.10;;;6.80;99.90;;;;;;5038994;28;20422;-79
2021/12/02 12:01:20;;;;;;;5.10;3.13;;;6.40;99.90;;;;;;5038096;28;20419;-79
2021/12/02 12:04:03;;;;;;;3.60;2.30;;;6.50;99.90;;;;;;5038329;28;21123;-80
2021/12/02 12:06:34;;;;;;;4.00;2.37;;;6.50;99.90;;;;;;5036992;28;20472;-80
2021/12/02 12:09:21;;;;;;;9.30;2.83;;;6.10;99.90;;;;;;5036728;28;20422;-79
2021/12/02 12:11:54;;;;;;;3.47;2.30;;;6.20;99.90;;;;;;5037628;28;21218;-80
2021/12/02 12:14:40;;;;;;;3.80;2.50;;;6.20;99.90;;;;;;5036508;28;20415;-81
2021/12/02 12:17:11;;;;;;;4.97;2.67;;;6.00;99.90;;;;;;5035880;28;20430;-78
2021/12/02 12:19:40;;;;;;;5.40;2.67;;;6.10;99.90;;;;;;5035336;28;20941;-79
2021/12/02 12:22:11;;;;;;;5.50;3.10;;;6.10;99.90;;;;;;5035680;28;20961;-80
2021/12/02 12:24:44;;;;;;;4.87;2.77;;;5.90;99.90;;;;;;5036299;28;20508;-79
2021/12/02 12:27:16;;;;;;;5.10;3.20;;;5.70;99.90;;;;;;5036534;28;20432;-83
2021/12/02 12:29:44;;;;;;;4.90;3.17;;;5.70;99.90;;;;;;5037068;28;20427;-81
2021/12/02 12:32:29;;;;;;;5.67;3.40;;;5.60;99.90;;;;;;5036817;28;20449;-82
2021/12/02 12:35:04;;;;;;;5.47;3.63;;;5.80;99.90;;;;;;5046185;22;21024;-77
2021/12/02 12:40:17;;;;;;;5.60;4.10;;;5.80;99.90;;;;;;5033968;28;20865;-76
2021/12/02 12:43:12;;;;;;;7.67;4.23;;;5.60;99.90;;;;;;5032401;28;20439;-77
2021/12/02 12:45:43;;;;;;;6.03;3.53;;;5.50;99.90;;;;;;5032535;28;20473;-76
2021/12/02 12:48:27;;;;;;;5.80;4.30;;;5.50;99.90;;;;;;5032519;28;20522;-76
2021/12/02 12:50:54;;;;;;;5.50;3.80;;;5.40;99.90;;;;;;5031057;28;21005;-75
2021/12/02 12:53:32;;;;;;;5.57;3.57;;;5.40;99.90;;;;;;5032472;28;20414;-75
2021/12/02 12:55:57;;;;;;;7.33;3.87;;;5.40;99.90;;;;;;5032143;28;20476;-75
2021/12/02 12:58:27;;;;;;;10.10;3.70;;;5.50;99.90;;;;;;5033564;28;20421;-76
2021/12/02 13:00:52;;;;;;;5.47;3.53;;;5.60;99.90;;;;;;5032010;28;20189;-75
2021/12/02 13:03:31;;;;;;;6.20;3.83;;;5.60;99.90;;;;;;5032329;28;20430;-76
2021/12/02 13:06:20;;;;;;;7.40;3.77;;;5.30;99.90;;;;;;5032196;28;20213;-76
2021/12/02 13:09:01;;;;;;;5.97;3.33;;;5.50;99.90;;;;;;5032092;28;20444;-76
2021/12/02 13:11:31;;;;;;;4.40;3.57;;;5.50;99.90;;;;;;5032043;28;20456;-76
2021/12/02 13:13:58;;;;;;;5.87;3.00;;;5.50;99.90;;;;;;5032242;28;20425;-76
2021/12/02 13:16:24;;;;;;;7.63;3.47;;;5.50;99.90;;;;;;5032709;28;20956;-75
2021/12/02 13:18:54;;;;;;;4.23;2.77;;;5.60;99.90;;;;;;5032307;28;20431;-76
2021/12/02 13:24:05;;;;;;;3.50;2.67;;;5.60;99.90;;;;;;5031583;28;20800;-75
2021/12/02 13:26:38;;;;;;;5.90;3.37;;;5.50;99.90;;;;;;5028531;28;20969;-74
2021/12/02 13:29:21;;;;;;;4.90;3.27;;;5.40;99.90;;;;;;5030559;28;20425;-75
2021/12/02 13:31:49;;;;;;;5.77;3.40;;;5.40;99.90;;;;;;5031306;28;20447;-75
2021/12/02 13:34:17;;;;;;;5.80;3.53;;;5.50;99.90;;;;;;5031675;28;20448;-75
2021/12/02 13:36:51;;;;;;;4.43;3.10;;;5.40;99.90;;;;;;5031893;28;20506;-75
2021/12/02 13:39:32;;;;;;;4.03;3.03;;;5.50;99.90;;;;;;5031492;28;20432;-76
2021/12/02 13:42:06;;;;;;;4.50;3.60;;;5.30;99.90;;;;;;5031766;28;20454;-76